createdAt,value
2023-01-19T00:04:46.371Z,7.3
2023-01-19T00:10:29.680Z,8.2
2023-01-19T00:16:14.104Z,8.4
2023-01-19T00:21:57.366Z,10.5
2023-01-19T00:27:40.608Z,7.1
2023-01-19T00:33:23.853Z,8.9
2023-01-19T00:39:07.029Z,8.6
2023-01-19T00:44:50.347Z,8.3
2023-01-19T00:50:34.209Z,8.7
2023-01-19T00:56:17.347Z,10.5
2023-01-19T01:02:01.510Z,8.8
2023-01-19T01:07:45.273Z,8.8
2023-01-19T01:13:32.169Z,9.4
2023-01-19T01:19:16.193Z,9
2023-01-19T01:24:59.466Z,9
2023-01-19T01:30:43.069Z,8.6
2023-01-19T01:36:26.245Z,10
2023-01-19T01:42:16.371Z,10.5
2023-01-19T01:48:01.075Z,11.4
2023-01-19T01:53:45.942Z,9.1
2023-01-19T01:59:31.506Z,9.5
2023-01-19T02:05:18.651Z,11
2023-01-19T02:11:03.295Z,10.7
2023-01-19T02:16:46.734Z,9.7
2023-01-19T02:22:34.612Z,10.1
2023-01-19T02:28:18.032Z,11.4
2023-01-19T02:34:02.360Z,10.7
2023-01-19T02:39:47.707Z,11.2
2023-01-19T02:45:31.042Z,11.7
2023-01-19T02:51:16.795Z,11.3
2023-01-19T02:57:05.145Z,11.3
2023-01-19T03:02:53.202Z,11.8
2023-01-19T03:08:42.493Z,11
2023-01-19T03:14:29.129Z,11.9
2023-01-19T03:20:14.079Z,11.5
2023-01-19T03:25:58.470Z,11.8
2023-01-19T03:31:43.341Z,11.8
2023-01-19T03:37:28.609Z,12.8
2023-01-19T03:43:12.370Z,11.1
2023-01-19T03:48:56.102Z,11.2
2023-01-19T03:54:39.744Z,12.6
2023-01-19T04:00:23.241Z,13.5
2023-01-19T04:06:06.633Z,10.8
2023-01-19T04:11:49.963Z,11.2
2023-01-19T04:17:33.687Z,11.5
2023-01-19T04:23:16.930Z,11.2
2023-01-19T04:29:00.333Z,13.2
2023-01-19T04:34:43.651Z,11.5
2023-01-19T04:40:26.900Z,13.3
2023-01-19T04:46:10.292Z,10.8
2023-01-19T04:51:54.911Z,11.9
2023-01-19T04:57:38.233Z,10.7
2023-01-19T05:03:22.126Z,11.6
2023-01-19T05:09:05.838Z,12.4
2023-01-19T05:14:49.067Z,11.6
2023-01-19T05:20:32.494Z,13.8
2023-01-19T05:26:15.981Z,10.7
2023-01-19T05:31:59.693Z,12.4
2023-01-19T05:37:43.051Z,13
2023-01-19T05:43:26.423Z,11.8
2023-01-19T05:49:10.084Z,12.4
2023-01-19T05:54:53.546Z,13.4
2023-01-19T06:00:36.806Z,13.5
2023-01-19T06:06:20.209Z,13.2
2023-01-19T06:12:03.412Z,12.9
2023-01-19T06:17:46.818Z,14.7
2023-01-19T06:23:32.539Z,12.3
2023-01-19T06:29:16.030Z,14.1
2023-01-19T06:34:59.430Z,12.6
2023-01-19T06:40:42.663Z,12.4
2023-01-19T06:46:25.988Z,11.7
2023-01-19T06:52:09.256Z,14.2
2023-01-19T06:57:57.387Z,13.1
2023-01-19T07:03:40.704Z,12.8
2023-01-19T07:09:27.484Z,14.6
2023-01-19T07:15:13.090Z,14
2023-01-19T07:20:56.216Z,13.6
2023-01-19T07:26:39.252Z,13.7
2023-01-19T07:32:22.571Z,14.2
2023-01-19T07:38:06.382Z,15.4
2023-01-19T07:43:49.721Z,15.7
2023-01-19T07:49:32.890Z,12.8
2023-01-19T07:55:16.565Z,13.3
2023-01-19T08:01:00.771Z,15.4
2023-01-19T08:06:47.717Z,14.7
2023-01-19T08:12:31.323Z,16.3
2023-01-19T08:18:14.736Z,14.5
2023-01-19T08:23:59.018Z,16.1
2023-01-19T08:29:42.432Z,15.1
2023-01-19T08:35:25.884Z,14
2023-01-19T08:41:09.237Z,14.2
2023-01-19T08:46:53.449Z,14.4
2023-01-19T08:52:37.564Z,13.6
2023-01-19T08:58:20.729Z,15.3
2023-01-19T09:04:07.269Z,13.7
2023-01-19T09:09:51.938Z,16.1
2023-01-19T09:15:35.513Z,16.5
2023-01-19T09:21:18.972Z,14.1
2023-01-19T09:27:02.190Z,14.1
2023-01-19T09:32:45.648Z,14.2
2023-01-19T09:38:28.842Z,17.4
2023-01-19T09:44:16.610Z,15.7
2023-01-19T09:50:04.057Z,13.2
2023-01-19T09:55:47.425Z,13.2
2023-01-19T10:01:38.205Z,14.4
2023-01-19T10:07:27.712Z,15.4
2023-01-19T10:13:19.840Z,14
2023-01-19T10:19:04.729Z,12.4
2023-01-19T10:24:49.344Z,12.4
2023-01-19T10:30:33.620Z,10.9
2023-01-19T10:36:22.813Z,12.7
2023-01-19T10:42:08.851Z,13.9
2023-01-19T10:47:52.365Z,12.5
2023-01-19T10:53:35.924Z,10.5
2023-01-19T10:59:34.776Z,13.8
2023-01-19T11:05:28.870Z,10.6
2023-01-19T11:11:12.316Z,11.8
2023-01-19T11:16:57.792Z,12.6
2023-01-19T11:22:41.183Z,11.7
2023-01-19T11:28:29.533Z,10.4
2023-01-19T11:34:17.706Z,9.3
2023-01-19T11:40:02.690Z,11
2023-01-19T11:45:46.872Z,10.2
2023-01-19T11:51:32.599Z,10.2
2023-01-19T11:57:18.464Z,9.9
2023-01-19T12:03:04.270Z,10.8
2023-01-19T12:08:49.566Z,10.9
2023-01-19T12:14:37.210Z,9.8
2023-01-19T12:20:27.321Z,8.5
2023-01-19T12:26:17.833Z,9.6
2023-01-19T12:32:12.194Z,8.4
2023-01-19T12:37:55.689Z,7.9
2023-01-19T12:43:39.032Z,8.9
2023-01-19T12:49:26.099Z,9.5
2023-01-19T12:55:15.600Z,8.7
2023-01-19T13:01:12.199Z,8.1
2023-01-19T13:07:07.353Z,7.9
2023-01-19T13:13:01.439Z,8
2023-01-19T13:18:45.011Z,7.5
2023-01-19T13:24:34.010Z,6.9
2023-01-19T13:30:19.749Z,8
2023-01-19T13:36:03.218Z,8.2
2023-01-19T13:41:46.917Z,8.4
2023-01-19T13:47:34.075Z,7.6
2023-01-19T13:53:23.751Z,8.5
2023-01-19T13:59:08.760Z,6.9
2023-01-19T14:04:53.155Z,7.7
2023-01-19T14:10:37.141Z,8.1
2023-01-19T14:16:20.726Z,7.6
2023-01-19T14:22:05.094Z,6.8
2023-01-19T14:27:48.447Z,9.3
2023-01-19T14:33:43.132Z,8.4
2023-01-19T14:39:27.722Z,7.7
2023-01-19T14:45:19.400Z,7.4
2023-01-19T14:51:06.814Z,6.9
2023-01-19T14:56:49.964Z,7.3
2023-01-19T15:02:33.486Z,7.4
2023-01-19T15:08:19.266Z,7.6
2023-01-19T15:14:02.762Z,7.4
2023-01-19T15:19:46.346Z,7.3
2023-01-19T15:25:29.595Z,7.6
2023-01-19T15:31:16.051Z,8.5
2023-01-19T15:36:59.353Z,7.5
2023-01-19T15:42:42.683Z,8
2023-01-19T15:48:26.105Z,7.1
2023-01-19T15:54:13.030Z,6.8
2023-01-19T15:59:56.298Z,6.5
2023-01-19T16:05:45.659Z,6.3
2023-01-19T16:11:29.053Z,8.6
2023-01-19T16:17:12.319Z,7.2
2023-01-19T16:23:14.704Z,7.1
2023-01-19T16:28:57.790Z,7.2
2023-01-19T16:34:40.991Z,7.2
2023-01-19T16:40:24.288Z,7.2
2023-01-19T16:46:08.435Z,8.8
2023-01-19T16:51:52.008Z,8.2
2023-01-19T16:57:35.165Z,6.9
2023-01-19T17:03:18.741Z,7.6
2023-01-19T17:09:02.209Z,7.4
2023-01-19T17:14:45.692Z,9.7
2023-01-19T17:20:28.949Z,8.8
2023-01-19T17:26:13.124Z,8
2023-01-19T17:31:56.461Z,10.8
2023-01-19T17:37:39.753Z,9.3
2023-01-19T17:43:23.134Z,7.7
2023-01-19T17:49:07.909Z,11.5
2023-01-19T17:54:51.157Z,10.7
2023-01-19T18:00:34.503Z,9.3
2023-01-19T18:06:18.367Z,9.6
2023-01-19T18:12:01.587Z,10.2
2023-01-19T18:17:45.282Z,9.4
2023-01-19T18:23:28.711Z,9.7
2023-01-19T18:29:12.458Z,8.9
2023-01-19T18:34:56.139Z,10.5
2023-01-19T18:40:39.551Z,10.4
2023-01-19T18:46:22.947Z,10.7
2023-01-19T18:52:06.483Z,11.8
2023-01-19T18:57:49.831Z,12.6
2023-01-19T19:03:33.285Z,10.9
2023-01-19T19:09:16.796Z,12.4
2023-01-19T19:15:05.669Z,10.4
2023-01-19T19:20:49.016Z,10.5
2023-01-19T19:26:32.061Z,11.6
2023-01-19T19:32:15.476Z,12.5
2023-01-19T19:37:58.939Z,11.1
2023-01-19T19:43:42.816Z,11.7
2023-01-19T19:49:26.081Z,12.1
2023-01-19T19:55:10.718Z,12
2023-01-19T20:00:54.473Z,13.1
2023-01-19T20:06:38.174Z,13.2
2023-01-19T20:12:21.339Z,13.4
2023-01-19T20:18:04.574Z,13.4
2023-01-19T20:23:48.380Z,12.7
2023-01-19T20:29:31.743Z,14.4
2023-01-19T20:35:16.141Z,14.6
2023-01-19T20:40:59.709Z,14.7
2023-01-19T20:46:43.113Z,14.4
2023-01-19T20:52:26.720Z,14
2023-01-19T20:58:10.412Z,13.5
2023-01-19T21:03:54.361Z,14.5
2023-01-19T21:09:38.184Z,14
2023-01-19T21:15:22.011Z,14.7
2023-01-19T21:21:05.813Z,12.8
2023-01-19T21:26:49.864Z,14.1
2023-01-19T21:32:33.180Z,14.3
2023-01-19T21:38:16.956Z,14.7
2023-01-19T21:44:00.293Z,14.2
2023-01-19T21:49:43.859Z,13.5
2023-01-19T21:55:27.309Z,12.8
2023-01-19T22:01:12.292Z,13.1
2023-01-19T22:06:55.854Z,14.2
2023-01-19T22:12:40.394Z,13.6
2023-01-19T22:18:23.772Z,13.4
2023-01-19T22:24:07.313Z,12.4
2023-01-19T22:29:51.215Z,13.6
2023-01-19T22:35:34.629Z,12.5
2023-01-19T22:41:20.190Z,14
2023-01-19T22:47:03.457Z,12.4
2023-01-19T22:52:46.692Z,12.4
2023-01-19T22:58:30.361Z,10.8
2023-01-19T23:04:15.281Z,12
2023-01-19T23:09:59.138Z,12.8
2023-01-19T23:15:43.613Z,12.1
2023-01-19T23:21:28.132Z,12.5
2023-01-19T23:27:11.223Z,12.9
2023-01-19T23:32:55.266Z,11.8
2023-01-19T23:38:39.046Z,10.9
2023-01-19T23:44:23.374Z,11.9
2023-01-19T23:50:07.981Z,12.7
2023-01-19T23:55:51.520Z,13
